x

West Erie - 16 Nm Nw Of Lorain, Oh (45005) Wave Buoy

12:50am - Tue 29th Jul 2014 All times are CDT. -5 hours from GMT.

  • Sig Wave height 2.6ft
  • Swell Direction
  • Peak Period 5s
  • Average Period 4s
  • Wind
    11mph, 13mph gusts
  • Sea Temp 71°f
  • Air Temp 61°f
  • Sea Pressure 1015.1mb
  • West Erie - 16 Nm Nw Of Lorain, Oh
  • West Erie - 16 Nm Nw Of Lorain, Oh

More Historic Weather Station data

Upgrade to MSW Pro to gain access to the past 30 days of data for over 8000 Wavebouys and Weather Stations around the globe.

Join Pro

Comparision Forecast

View Surf forecast
   
Tue 07/29 12:50am 2.5ft 5s 4s 11 13 mph 1015.1mb 71f 61f
Mon 07/28 11:50pm 3ft 5s 4s 13 20 mph 1015.2mb 71f 61f
10:50pm 3ft 5s 4s 18 20 mph 1015.3mb 71f 62f
9:50pm 3ft 5s 4s 16 20 mph 1015.5mb 71f 62f
8:50pm 2.5ft 4s 4s 16 20 mph 1015.2mb 71f 62f
7:50pm 2.5ft 4s 4s 16 20 mph 1014.5mb 71f 62f
6:50pm 3ft 4s 4s 18 25 mph 1014mb 71f 63f
5:50pm 3ft 4s 4s 16 18 mph 1013.7mb 71f 65f
4:50pm 3ft 5s 4s 16 18 mph 1013.6mb 72f 64f
3:50pm 3.5ft 4s 4s 18 22 mph 1013.3mb 72f 64f
2:50pm 4ft 5s 4s 20 25 mph 1012.9mb 71f 65f
1:50pm 4ft 4s 4s 22 27 mph 1012.3mb 71f 65f
12:50pm 4.5ft 4s 4s 22 27 mph 1011.9mb 71f 65f
11:50am 4.5ft 5s 4s 25 31 mph 1011.5mb 71f 65f
10:50am 4.5ft 5s 4s 25 29 mph 1010.7mb 71f 65f
9:50am 4.5ft 5s 4s 25 31 mph 1009.5mb 72f 65f
8:50am 4ft 4s 4s 25 31 mph 1008.8mb 72f 65f
7:50am 3.5ft 5s 4s 29 34 mph 1007.5mb 72f 65f
6:50am 3.5ft 4s 4s 29 36 mph 1006.4mb 72f 66f
5:50am 3.5ft 4s 4s 25 34 mph 1005.7mb 72f 65f
4:50am 3ft 4s 4s 25 31 mph 1005.2mb 72f 66f
3:50am 3ft 4s 4s 18 25 mph 1005mb 72f 66f
2:50am 3.5ft 4s 4s 22 27 mph 1004.7mb 72f 66f
1:50am 2.5ft 3s 3s 22 29 mph 1004.5mb 72f 66f
12:50am 2ft 4s 3s 25 29 mph 1004.8mb 73f 66f
Sun 07/27 11:50pm 2ft 4s 4s 13 18 mph 1005.1mb 73f 67f
10:50pm 2.5ft 4s 4s 2
mph
1004.5mb 73f 68f
9:50pm 3ft 4s 4s 9 11 mph 1004.5mb 73f 68f
8:50pm 2.5ft 4s 4s 22 25 mph 1003.9mb 73f 68f
7:50pm 1.6ft 3s 3s 27 36 mph 1004.7mb 73f 68f
6:50pm 0.7ft  -  2s 31 45 mph 1003.6mb 73f 65f
5:50pm 0.3ft  -  3s 11 13 mph 1002.1mb 74f 73f
4:50pm 0.3ft  -  3s 7 9 mph 1002.5mb 74f 72f
3:50pm 0.3ft  -  3s 2 4 mph 1003.1mb 75f 73f
2:50pm 0.3ft  -  3s 9
mph
1003.7mb 75f 74f
1:50pm 0.3ft  -  3s 4 7 mph 1005.3mb 75f 76f
12:50pm 0.3ft  -  3s 2 4 mph 1005.9mb 76f 75f
11:50am 0.3ft  -  3s 2 4 mph 1006.3mb 76f 74f
10:50am 0.3ft  -  3s 2 4 mph 1007.5mb 74f 74f
9:50am 0.7ft  -  3s 4 7 mph 1008.2mb 73f 73f
8:50am 0.7ft  -  3s 11 13 mph 1008.5mb 73f 72f
7:50am 0.7ft  -  3s 9 11 mph 1008.6mb 73f 72f
6:50am 0.7ft  -  3s 13 16 mph 1008.3mb 73f 72f
5:50am 1ft 3s 3s 9 11 mph 1008.2mb 73f 72f
4:50am 1ft 3s 3s 9 11 mph 1008.3mb 73f 72f
3:50am 1.3ft 3s 3s 9
mph
1008.4mb 73f 73f
2:50am  -   -   -  13
mph
- - -
1:50am 1.3ft 3s 3s 13 16 mph 1009mb 73f 74f
12:50am 1ft 2s 3s 11 13 mph 1008.7mb 73f 74f
Sat 07/26 11:50pm 0.7ft  -  3s 13 16 mph 1008.4mb 73f 74f
10:50pm 0.3ft  -  2s 11 13 mph 1008.7mb 73f 74f
9:50pm 0.3ft  -  3s 7
mph
1009.1mb 73f 73f
8:50pm 1ft 3s 3s 13 18 mph 1009.6mb 73f 73f
7:50pm 1ft 3s 3s 9 11 mph 1009.6mb 73f 73f
6:50pm 1ft 3s 3s 9 11 mph 1009.6mb 73f 72f
5:50pm 1ft 3s 3s 13 18 mph 1009.6mb 73f 73f
4:50pm 0.7ft  -  3s 18 22 mph 1009.5mb 73f 76f
3:50pm 0.3ft  -  3s 9 11 mph 1009.7mb 74f 76f
2:50pm 0.3ft  -  3s 9 11 mph 1010.3mb 74f 75f
1:50pm 0.3ft  -  3s 7 9 mph 1011.4mb 74f 75f
12:50pm 0.3ft  -  3s 4
mph
1012.1mb 73f 74f
11:50am 0.7ft  -  3s 4 7 mph 1012.9mb 73f 73f
10:50am 1ft 3s 3s 9 11 mph 1013mb 72f 73f
9:50am 1.3ft 3s 3s 11 13 mph 1013.6mb 72f 71f
8:50am 1ft 3s 3s 13 16 mph 1013.6mb 72f 70f
7:50am 1ft 3s 3s 13 16 mph 1013.8mb 72f 70f
6:50am 1ft 3s 3s 13
mph
1013.8mb 72f 70f
5:50am 0.7ft  -  2s 11 13 mph 1014mb 72f 70f
4:50am 0.7ft  -  2s 11 13 mph 1014mb 72f 70f
3:50am 0.7ft  -  2s 9 11 mph 1014.2mb 72f 70f
2:50am 0.3ft  -  3s 11 13 mph 1014.5mb 72f 70f
1:50am 0.3ft  -  3s 9 11 mph 1014.9mb 72f 70f
12:50am 0.3ft  -  3s 9 11 mph 1015.5mb 72f 69f
Fri 07/25 11:50pm 0.3ft  -  3s 7 9 mph 1015.5mb 73f 69f
10:50pm 0.3ft  -  3s 2 4 mph 1015.6mb 73f 69f
9:50pm 0.3ft  -  2s 9 11 mph 1015.9mb 73f 70f
8:50pm 0.3ft  -  3s 7 9 mph 1015.7mb 73f 71f
7:50pm 0.3ft  -  3s 7 9 mph 1015.5mb 73f 71f
6:50pm 0.3ft  -  3s  -  2 mph 1015.9mb 73f 72f
5:50pm 0.3ft  -  3s 2
mph
1015.7mb 73f 73f
4:50pm 0.3ft  -  3s 4 7 mph 1015.8mb 73f 72f
3:50pm 0.3ft  -  3s 4 7 mph 1016.3mb 73f 71f
2:50pm 0.3ft  -  3s 2 4 mph 1016.8mb 73f 71f
1:50pm 0.7ft  -  3s 7 9 mph 1017.5mb 72f 70f
12:50pm 0.7ft  -  3s 9 11 mph 1018.1mb 72f 69f
11:50am 0.7ft  -  3s 11 13 mph 1018.5mb 72f 69f
10:50am 1ft 3s 3s 13 16 mph 1019mb 72f 68f
9:50am 1ft 3s 3s 9 13 mph 1019.4mb 71f 67f
8:50am 1.3ft 3s 3s 13 16 mph 1019.8mb 71f 67f
7:50am 0.7ft  -  3s 13 16 mph 1019.2mb 71f 67f
6:50am 0.7ft  -  3s 9 11 mph 1019.4mb 71f 67f